createdAt,value
2022-08-18T00:01:06.611Z,100.00
2022-08-18T00:03:56.673Z,100.00
2022-08-18T00:06:21.155Z,100.00
2022-08-18T00:08:47.960Z,100.00
2022-08-18T00:11:16.157Z,100.00
2022-08-18T00:13:42.999Z,100.00
2022-08-18T00:16:09.918Z,99.59
2022-08-18T00:18:36.734Z,99.22
2022-08-18T00:21:03.550Z,99.27
2022-08-18T00:23:32.689Z,99.21
2022-08-18T00:25:59.555Z,99.87
2022-08-18T00:28:26.614Z,100.00
2022-08-18T00:30:54.063Z,100.00
2022-08-18T00:33:21.797Z,100.00
2022-08-18T00:35:49.383Z,100.00
2022-08-18T00:38:24.577Z,100.00
2022-08-18T00:40:55.630Z,99.83
2022-08-18T00:43:32.134Z,99.70
2022-08-18T00:45:59.400Z,99.82
2022-08-18T00:48:26.568Z,100.00
2022-08-18T00:51:00.269Z,100.00
2022-08-18T00:53:29.538Z,100.00
2022-08-18T00:56:00.583Z,99.90
2022-08-18T00:58:40.001Z,99.96
2022-08-18T01:01:09.605Z,100.00
2022-08-18T01:03:40.133Z,99.76
2022-08-18T01:06:09.899Z,99.53
2022-08-18T01:08:38.826Z,99.66
2022-08-18T01:11:07.875Z,99.66
2022-08-18T01:13:38.317Z,99.60
2022-08-18T01:16:25.595Z,99.73
2022-08-18T01:19:11.753Z,100.00
2022-08-18T01:21:52.348Z,100.00
2022-08-18T01:24:52.485Z,100.00
2022-08-18T01:27:19.416Z,100.00
2022-08-18T01:29:48.528Z,100.00
2022-08-18T01:32:22.512Z,100.00
2022-08-18T01:34:51.858Z,100.00
2022-08-18T01:37:21.866Z,100.00
2022-08-18T01:41:24.150Z,100.00
2022-08-18T01:42:37.452Z,100.00
2022-08-18T01:45:07.551Z,100.00
2022-08-18T01:47:47.846Z,100.00
2022-08-18T01:50:16.955Z,100.00
2022-08-18T01:52:44.123Z,100.00
2022-08-18T01:55:10.900Z,100.00
2022-08-18T01:57:45.232Z,100.00
2022-08-18T02:00:14.924Z,100.00
2022-08-18T02:02:42.364Z,100.00
2022-08-18T02:05:18.377Z,100.00
2022-08-18T02:07:45.657Z,100.00
2022-08-18T02:10:16.602Z,100.00
2022-08-18T02:12:43.915Z,100.00
2022-08-18T02:15:12.099Z,100.00
2022-08-18T02:17:41.641Z,100.00
2022-08-18T02:20:10.305Z,100.00
2022-08-18T02:22:37.450Z,100.00
2022-08-18T02:25:06.781Z,100.00
2022-08-18T02:27:34.287Z,100.00
2022-08-18T02:30:02.371Z,100.00
2022-08-18T02:32:29.442Z,100.00
2022-08-18T02:34:56.408Z,100.00
2022-08-18T02:37:23.363Z,100.00
2022-08-18T02:39:50.219Z,100.00
2022-08-18T02:42:17.302Z,100.00
2022-08-18T02:44:44.668Z,100.00
2022-08-18T02:47:11.697Z,100.00
2022-08-18T02:49:38.502Z,100.00
2022-08-18T02:52:06.192Z,100.00
2022-08-18T02:54:33.103Z,100.00
2022-08-18T02:56:59.815Z,100.00
2022-08-18T02:59:27.906Z,100.00
2022-08-18T03:01:58.714Z,100.00
2022-08-18T03:04:30.217Z,100.00
2022-08-18T03:07:03.947Z,100.00
2022-08-18T03:09:32.123Z,100.00
2022-08-18T03:11:59.211Z,100.00
2022-08-18T03:14:26.595Z,100.00
2022-08-18T03:16:54.880Z,100.00
2022-08-18T03:19:31.921Z,100.00
2022-08-18T03:22:02.710Z,100.00
2022-08-18T03:24:32.350Z,100.00
2022-08-18T03:27:01.719Z,100.00
2022-08-18T03:29:32.789Z,100.00
2022-08-18T03:32:02.233Z,100.00
2022-08-18T03:34:30.028Z,100.00
2022-08-18T03:36:56.885Z,100.00
2022-08-18T03:39:25.055Z,100.00
2022-08-18T03:41:59.472Z,100.00
2022-08-18T03:44:33.890Z,100.00
2022-08-18T03:47:03.944Z,100.00
2022-08-18T03:49:33.733Z,100.00
2022-08-18T03:52:01.672Z,100.00
2022-08-18T03:54:29.894Z,100.00
2022-08-18T03:56:56.853Z,100.00
2022-08-18T03:59:27.686Z,100.00
2022-08-18T04:01:55.350Z,98.99
2022-08-18T04:04:28.216Z,96.42
2022-08-18T04:06:58.820Z,93.78
2022-08-18T04:09:28.961Z,90.72
2022-08-18T04:11:57.118Z,89.62
2022-08-18T04:14:28.999Z,83.82
2022-08-18T04:16:57.115Z,80.82
2022-08-18T04:19:27.699Z,79.89
2022-08-18T04:21:57.701Z,76.16
2022-08-18T04:24:26.187Z,74.61
2022-08-18T04:26:53.564Z,70.78
2022-08-18T04:29:23.744Z,69.50
2022-08-18T04:31:51.642Z,69.84
2022-08-18T04:34:20.725Z,68.40
2022-08-18T04:36:48.271Z,68.18
2022-08-18T04:39:15.062Z,67.03
2022-08-18T04:41:44.124Z,65.99
2022-08-18T04:44:12.402Z,66.25
2022-08-18T04:46:41.896Z,66.14
2022-08-18T04:49:10.685Z,64.64
2022-08-18T04:52:36.483Z,62.93
2022-08-18T04:54:28.854Z,62.91
2022-08-18T04:56:55.885Z,62.14
2022-08-18T04:59:23.156Z,61.80
2022-08-18T05:01:49.908Z,61.08
2022-08-18T05:04:17.865Z,61.26
2022-08-18T05:06:46.280Z,60.44
2022-08-18T05:09:16.661Z,60.00
2022-08-18T05:11:50.925Z,58.53
2022-08-18T05:14:18.453Z,57.39
2022-08-18T05:16:48.545Z,55.98
2022-08-18T05:19:26.116Z,57.10
2022-08-18T05:21:59.926Z,57.10
2022-08-18T05:24:33.700Z,55.93
2022-08-18T05:27:04.969Z,55.61
2022-08-18T05:29:41.412Z,55.26
2022-08-18T05:32:30.310Z,53.98
2022-08-18T05:35:04.679Z,52.67
2022-08-18T05:37:58.373Z,52.95
2022-08-18T05:40:26.011Z,52.01
2022-08-18T05:42:57.729Z,51.72
2022-08-18T05:45:25.227Z,51.21
2022-08-18T05:48:00.180Z,50.93
2022-08-18T05:50:31.476Z,51.26
2022-08-18T05:53:13.691Z,51.01
2022-08-18T05:56:08.068Z,48.65
2022-08-18T05:58:43.474Z,48.04
2022-08-18T06:01:25.647Z,47.93
2022-08-18T06:04:01.086Z,46.78
2022-08-18T06:06:31.713Z,44.76
2022-08-18T06:09:13.087Z,44.53
2022-08-18T06:11:40.051Z,45.57
2022-08-18T06:14:07.085Z,47.27
2022-08-18T06:17:02.670Z,47.89
2022-08-18T06:19:44.926Z,48.63
2022-08-18T06:22:52.269Z,47.72
2022-08-18T06:25:55.424Z,46.25
2022-08-18T06:28:22.427Z,45.73
2022-08-18T06:31:18.466Z,44.04
2022-08-18T06:34:30.823Z,42.76
2022-08-18T06:37:20.035Z,43.23
2022-08-18T06:39:50.085Z,43.30
2022-08-18T06:42:25.992Z,42.99
2022-08-18T06:44:59.188Z,43.53
2022-08-18T06:47:29.352Z,42.86
2022-08-18T06:50:08.270Z,42.93
2022-08-18T06:52:50.979Z,42.17
2022-08-18T06:55:30.993Z,41.21
2022-08-18T06:58:01.263Z,39.34
2022-08-18T07:00:34.688Z,38.99
2022-08-18T07:03:20.808Z,38.59
2022-08-18T07:06:07.922Z,38.03
2022-08-18T07:08:41.394Z,37.14
2022-08-18T07:11:13.778Z,37.15
2022-08-18T07:13:44.460Z,37.59
2022-08-18T07:16:57.030Z,35.03
2022-08-18T07:19:30.024Z,36.12
2022-08-18T07:22:05.440Z,34.42
2022-08-18T07:24:38.742Z,32.91
2022-08-18T07:27:16.000Z,33.59
2022-08-18T07:30:09.133Z,33.99
2022-08-18T07:33:09.549Z,33.21
2022-08-18T07:35:59.490Z,33.30
2022-08-18T07:38:43.273Z,32.98
2022-08-18T07:41:52.600Z,33.00
2022-08-18T07:44:23.651Z,33.40
2022-08-18T07:47:04.397Z,33.40
2022-08-18T07:49:37.020Z,33.33
2022-08-18T07:52:46.877Z,32.61
2022-08-18T07:55:37.918Z,32.78
2022-08-18T07:58:32.737Z,32.34
2022-08-18T08:01:00.305Z,33.13
2022-08-18T08:04:01.456Z,31.53
2022-08-18T08:06:37.234Z,31.89
2022-08-18T08:09:29.924Z,30.15
2022-08-18T08:12:01.853Z,31.15
2022-08-18T08:14:49.843Z,31.05
2022-08-18T08:17:25.444Z,31.33
2022-08-18T08:20:10.648Z,31.20
2022-08-18T08:23:05.213Z,32.66
2022-08-18T08:25:54.796Z,32.62
2022-08-18T08:28:41.779Z,30.96
2022-08-18T08:31:37.955Z,32.87
2022-08-18T08:34:25.696Z,31.47
2022-08-18T08:37:02.707Z,31.16
2022-08-18T08:39:37.694Z,30.78
2022-08-18T08:42:32.073Z,31.58
2022-08-18T08:45:07.288Z,31.23
2022-08-18T08:47:45.377Z,32.11
2022-08-18T08:50:22.276Z,32.31
2022-08-18T08:53:06.233Z,33.12
2022-08-18T08:55:37.875Z,32.64
2022-08-18T08:58:24.710Z,31.77
2022-08-18T09:00:52.693Z,32.12
2022-08-18T09:04:01.929Z,33.10
2022-08-18T09:06:48.429Z,32.49
2022-08-18T09:09:21.277Z,32.65
2022-08-18T09:12:03.386Z,32.55
2022-08-18T09:15:00.447Z,31.69
2022-08-18T09:17:50.755Z,31.76
2022-08-18T09:20:43.527Z,30.43
2022-08-18T09:23:21.507Z,29.39
2022-08-18T09:25:56.792Z,29.73
2022-08-18T09:28:56.430Z,29.74
2022-08-18T09:31:24.843Z,30.49
2022-08-18T09:34:10.915Z,29.65
2022-08-18T09:36:58.903Z,29.18
2022-08-18T09:39:57.878Z,29.20
2022-08-18T09:42:30.594Z,29.34
2022-08-18T09:45:02.188Z,30.05
2022-08-18T09:47:30.467Z,29.86
2022-08-18T09:50:26.906Z,29.92
2022-08-18T09:52:58.993Z,27.91
2022-08-18T09:55:29.225Z,27.15
2022-08-18T09:58:26.228Z,27.32
2022-08-18T10:01:39.880Z,26.77
2022-08-18T10:04:21.861Z,27.11
2022-08-18T10:07:16.006Z,26.60
2022-08-18T10:13:38.763Z,26.13
2022-08-18T10:17:15.934Z,24.62
2022-08-18T10:19:56.226Z,25.79
2022-08-18T10:22:43.701Z,26.18
2022-08-18T10:25:22.961Z,27.12
2022-08-18T10:27:56.863Z,26.25
2022-08-18T10:30:34.469Z,27.07
2022-08-18T10:33:17.858Z,27.46
2022-08-18T10:36:03.076Z,26.36
2022-08-18T10:38:47.848Z,26.58
2022-08-18T10:41:24.518Z,27.50
2022-08-18T10:43:55.921Z,27.68
2022-08-18T10:46:34.992Z,28.09
2022-08-18T10:49:21.597Z,28.18
2022-08-18T10:52:09.355Z,28.72
2022-08-18T10:55:10.535Z,28.58
2022-08-18T10:58:15.376Z,29.17
2022-08-18T11:01:20.262Z,27.98
2022-08-18T11:03:56.137Z,27.49
2022-08-18T11:06:27.124Z,27.26
2022-08-18T11:09:00.368Z,26.47
2022-08-18T11:11:43.025Z,26.14
2022-08-18T11:14:23.761Z,26.60
2022-08-18T11:16:59.737Z,27.25
2022-08-18T11:19:27.232Z,27.63
2022-08-18T11:21:54.196Z,27.72
2022-08-18T11:24:27.590Z,26.91
2022-08-18T11:27:03.425Z,26.21
2022-08-18T11:29:34.645Z,26.29
2022-08-18T11:32:26.280Z,25.05
2022-08-18T11:35:10.814Z,26.05
2022-08-18T11:37:52.079Z,25.57
2022-08-18T11:43:16.951Z,26.77
2022-08-18T11:45:52.815Z,27.79
2022-08-18T11:48:36.023Z,27.34
2022-08-18T11:51:22.725Z,28.76
2022-08-18T11:54:03.153Z,28.38
2022-08-18T11:56:36.031Z,27.98
2022-08-18T11:59:08.664Z,26.71
2022-08-18T12:01:41.912Z,27.71
2022-08-18T12:04:14.514Z,26.27
2022-08-18T12:06:59.505Z,26.32
2022-08-18T12:12:30.934Z,25.10
2022-08-18T12:15:24.676Z,25.48
2022-08-18T12:17:53.660Z,25.97
2022-08-18T12:20:22.011Z,26.59
2022-08-18T12:22:50.271Z,26.68
2022-08-18T12:28:11.191Z,26.26
2022-08-18T12:30:38.105Z,26.45
2022-08-18T12:33:12.099Z,26.57
2022-08-18T12:38:26.716Z,26.59
2022-08-18T12:40:53.554Z,28.01
2022-08-18T12:43:20.513Z,26.64
2022-08-18T12:45:47.792Z,26.50
2022-08-18T12:48:15.111Z,27.58
2022-08-18T12:50:54.181Z,27.90
2022-08-18T12:53:29.183Z,27.94
2022-08-18T12:56:19.919Z,27.48
2022-08-18T12:58:46.937Z,28.09
2022-08-18T13:01:13.890Z,27.55
2022-08-18T13:04:11.029Z,28.28
2022-08-18T13:06:37.413Z,28.40
2022-08-18T13:09:16.671Z,28.99
2022-08-18T13:11:55.082Z,30.66
2022-08-18T13:14:22.560Z,29.59
2022-08-18T13:16:53.858Z,29.26
2022-08-18T13:19:21.769Z,29.45
2022-08-18T13:21:49.539Z,30.51
2022-08-18T13:24:16.696Z,30.31
2022-08-18T13:26:50.221Z,30.79
2022-08-18T13:29:19.427Z,30.40
2022-08-18T13:31:55.936Z,31.03
2022-08-18T13:34:29.761Z,31.04
2022-08-18T13:36:58.056Z,30.83
2022-08-18T13:39:34.080Z,31.85
2022-08-18T13:42:26.413Z,31.05
2022-08-18T13:44:53.230Z,32.10
2022-08-18T13:47:22.340Z,32.00
2022-08-18T13:49:57.858Z,32.37
2022-08-18T13:52:34.182Z,32.54
2022-08-18T13:55:08.278Z,33.31
2022-08-18T13:57:36.868Z,33.55
2022-08-18T14:00:12.227Z,33.33
2022-08-18T14:02:53.619Z,32.68
2022-08-18T14:05:21.489Z,32.93
2022-08-18T14:08:05.238Z,33.46
2022-08-18T14:10:32.951Z,33.98
2022-08-18T14:13:20.875Z,32.77
2022-08-18T14:15:53.537Z,33.07
2022-08-18T14:18:21.533Z,33.36
2022-08-18T14:21:15.694Z,33.63
2022-08-18T14:24:01.231Z,34.05
2022-08-18T14:26:47.085Z,34.21
2022-08-18T14:29:45.716Z,34.49
2022-08-18T14:32:07.228Z,34.83
2022-08-18T14:34:34.657Z,34.37
2022-08-18T14:37:03.252Z,34.76
2022-08-18T14:39:30.369Z,35.29
2022-08-18T14:41:58.592Z,35.35
2022-08-18T14:44:30.261Z,34.67
2022-08-18T14:46:59.604Z,35.39
2022-08-18T14:49:29.404Z,34.78
2022-08-18T14:52:01.119Z,35.81
2022-08-18T14:54:30.089Z,36.09
2022-08-18T14:56:59.940Z,36.66
2022-08-18T14:59:28.533Z,36.98
2022-08-18T15:01:55.962Z,36.45
2022-08-18T15:04:23.050Z,36.52
2022-08-18T15:06:56.307Z,38.09
2022-08-18T15:09:27.420Z,38.04
2022-08-18T15:11:56.252Z,38.38
2022-08-18T15:14:33.135Z,39.28
2022-08-18T15:17:02.999Z,39.28
2022-08-18T15:20:00.496Z,39.80
2022-08-18T15:22:44.640Z,40.54
2022-08-18T15:25:30.047Z,41.27
2022-08-18T15:27:58.157Z,41.50
2022-08-18T15:30:25.649Z,41.25
2022-08-18T15:32:54.546Z,41.92
2022-08-18T15:35:21.469Z,41.25
2022-08-18T15:37:54.104Z,42.34
2022-08-18T15:40:35.540Z,42.98
2022-08-18T15:43:10.105Z,43.09
2022-08-18T15:45:43.323Z,43.00
2022-08-18T15:48:20.276Z,43.38
2022-08-18T15:50:50.992Z,43.46
2022-08-18T15:53:21.444Z,43.93
2022-08-18T15:55:49.984Z,44.23
2022-08-18T15:58:18.220Z,44.14
2022-08-18T16:00:50.639Z,44.35
2022-08-18T16:03:20.613Z,44.23
2022-08-18T16:05:55.205Z,44.48
2022-08-18T16:08:25.495Z,44.86
2022-08-18T16:10:53.624Z,45.01
2022-08-18T16:13:21.321Z,45.38
2022-08-18T16:15:49.957Z,45.32
2022-08-18T16:18:18.778Z,45.29
2022-08-18T16:20:45.683Z,45.45
2022-08-18T16:23:13.222Z,45.90
2022-08-18T16:25:41.780Z,46.26
2022-08-18T16:28:09.542Z,46.70
2022-08-18T16:30:36.598Z,46.78
2022-08-18T16:33:06.559Z,46.98
2022-08-18T16:35:34.894Z,47.24
2022-08-18T16:38:08.676Z,47.56
2022-08-18T16:40:36.893Z,48.11
2022-08-18T16:43:05.967Z,48.32
2022-08-18T16:45:35.936Z,48.64
2022-08-18T16:48:03.007Z,49.13
2022-08-18T16:50:30.172Z,49.50
2022-08-18T16:52:57.696Z,49.49
2022-08-18T16:55:24.697Z,49.95
2022-08-18T16:58:14.877Z,50.23
2022-08-18T17:01:01.889Z,50.71
2022-08-18T17:03:47.758Z,51.01
2022-08-18T17:06:18.039Z,51.70
2022-08-18T17:08:46.292Z,51.91
2022-08-18T17:11:17.756Z,51.90
2022-08-18T17:13:46.242Z,52.18
2022-08-18T17:16:13.739Z,53.05
2022-08-18T17:18:41.800Z,53.23
2022-08-18T17:21:11.799Z,53.43
2022-08-18T17:23:39.592Z,53.69
2022-08-18T17:26:17.503Z,53.83
2022-08-18T17:28:52.653Z,54.01
2022-08-18T17:31:22.680Z,54.34
2022-08-18T17:33:50.211Z,54.21
2022-08-18T17:36:30.523Z,54.74
2022-08-18T17:39:01.403Z,54.93
2022-08-18T17:41:28.618Z,55.05
2022-08-18T17:43:57.491Z,55.38
2022-08-18T17:46:32.299Z,55.63
2022-08-18T17:49:06.343Z,56.10
2022-08-18T17:51:44.414Z,56.64
2022-08-18T17:54:33.654Z,57.22
2022-08-18T17:57:13.512Z,56.89
2022-08-18T18:00:02.535Z,57.40
2022-08-18T18:02:41.016Z,57.91
2022-08-18T18:05:11.879Z,58.73
2022-08-18T18:07:52.922Z,58.77
2022-08-18T18:11:04.348Z,59.28
2022-08-18T18:13:34.984Z,59.40
2022-08-18T18:16:21.533Z,59.16
2022-08-18T18:18:59.988Z,59.96
2022-08-18T18:21:53.451Z,60.29
2022-08-18T18:24:24.200Z,60.90
2022-08-18T18:26:52.145Z,61.07
2022-08-18T18:29:35.660Z,61.69
2022-08-18T18:32:23.923Z,61.71
2022-08-18T18:35:07.430Z,62.13
2022-08-18T18:37:44.132Z,62.15
2022-08-18T18:40:29.388Z,62.31
2022-08-18T18:43:16.649Z,62.38
2022-08-18T18:46:05.089Z,62.72
2022-08-18T18:48:59.233Z,63.13
2022-08-18T18:51:36.032Z,63.47
2022-08-18T18:54:09.102Z,63.97
2022-08-18T18:56:45.672Z,64.25
2022-08-18T18:59:35.269Z,64.60
2022-08-18T19:02:21.162Z,65.12
2022-08-18T19:05:09.821Z,66.32
2022-08-18T19:07:55.314Z,66.26
2022-08-18T19:10:31.256Z,66.23
2022-08-18T19:13:05.688Z,66.61
2022-08-18T19:15:38.118Z,66.63
2022-08-18T19:18:28.686Z,66.79
2022-08-18T19:22:01.969Z,67.26
2022-08-18T19:23:56.867Z,67.40
2022-08-18T19:26:28.839Z,68.13
2022-08-18T19:29:13.750Z,68.64
2022-08-18T19:32:07.348Z,69.28
2022-08-18T19:34:42.463Z,69.62
2022-08-18T19:37:31.547Z,69.78
2022-08-18T19:40:39.385Z,70.08
2022-08-18T19:43:17.550Z,69.79
2022-08-18T19:45:47.181Z,70.03
2022-08-18T19:48:34.831Z,70.78
2022-08-18T19:51:10.271Z,70.59
2022-08-18T19:53:44.221Z,70.60
2022-08-18T19:56:48.945Z,70.81
2022-08-18T19:59:44.079Z,71.26
2022-08-18T20:02:17.032Z,71.89
2022-08-18T20:04:57.432Z,72.31
2022-08-18T20:07:49.876Z,72.33
2022-08-18T20:10:34.491Z,71.98
2022-08-18T20:13:11.416Z,71.61
2022-08-18T20:15:57.683Z,71.61
2022-08-18T20:18:34.471Z,71.53
2022-08-18T20:21:26.340Z,71.67
2022-08-18T20:23:56.615Z,71.68
2022-08-18T20:26:37.754Z,71.64
2022-08-18T20:29:13.154Z,72.25
2022-08-18T20:31:49.248Z,72.10
2022-08-18T20:34:25.527Z,72.53
2022-08-18T20:36:53.528Z,72.47
2022-08-18T20:39:38.981Z,72.80
2022-08-18T20:42:27.443Z,72.88
2022-08-18T20:44:58.926Z,73.41
2022-08-18T20:47:31.474Z,73.39
2022-08-18T20:50:13.429Z,73.31
2022-08-18T20:53:04.101Z,73.03
2022-08-18T20:56:12.952Z,72.74
2022-08-18T20:59:08.914Z,72.91
2022-08-18T21:01:36.967Z,72.33
2022-08-18T21:04:06.123Z,72.45
2022-08-18T21:06:38.599Z,72.39
2022-08-18T21:09:05.635Z,72.73
2022-08-18T21:11:43.755Z,73.10
2022-08-18T21:14:12.973Z,73.40
2022-08-18T21:16:45.199Z,73.31
2022-08-18T21:19:27.924Z,74.16
2022-08-18T21:22:00.516Z,74.43
2022-08-18T21:24:33.221Z,74.64
2022-08-18T21:27:05.740Z,75.13
2022-08-18T21:29:46.987Z,75.47
2022-08-18T21:32:20.274Z,76.50
2022-08-18T21:34:47.869Z,77.48
2022-08-18T21:37:18.193Z,77.20
2022-08-18T21:39:48.099Z,77.70
2022-08-18T21:42:21.327Z,77.85
2022-08-18T21:44:49.319Z,78.99
2022-08-18T21:47:29.746Z,79.82
2022-08-18T21:50:23.223Z,79.33
2022-08-18T21:52:54.859Z,79.12
2022-08-18T21:55:45.170Z,79.06
2022-08-18T21:58:16.738Z,78.56
2022-08-18T22:00:47.961Z,78.18
2022-08-18T22:03:25.230Z,77.71
2022-08-18T22:06:01.617Z,77.32
2022-08-18T22:08:33.289Z,77.03
2022-08-18T22:11:51.968Z,76.76
2022-08-18T22:14:54.292Z,76.89
2022-08-18T22:17:56.613Z,77.08
2022-08-18T22:20:35.231Z,77.05
2022-08-18T22:23:32.789Z,77.07
2022-08-18T22:26:09.942Z,77.04
2022-08-18T22:28:58.874Z,76.98
2022-08-18T22:31:47.917Z,76.92
2022-08-18T22:34:27.081Z,76.61
2022-08-18T22:37:00.045Z,77.06
2022-08-18T22:39:34.164Z,77.17
2022-08-18T22:42:01.505Z,77.53
2022-08-18T22:44:28.780Z,77.72
2022-08-18T22:46:55.884Z,77.72
2022-08-18T22:49:24.243Z,78.56
2022-08-18T22:51:54.289Z,78.38
2022-08-18T22:54:23.192Z,78.15
2022-08-18T22:56:53.790Z,78.51
2022-08-18T22:59:25.598Z,78.32
2022-08-18T23:01:54.709Z,78.32
2022-08-18T23:04:23.647Z,78.39
2022-08-18T23:06:53.807Z,78.16
2022-08-18T23:09:27.078Z,77.85
2022-08-18T23:11:56.357Z,77.72
2022-08-18T23:14:24.194Z,78.31
2022-08-18T23:16:51.350Z,78.76
2022-08-18T23:19:20.392Z,79.68
2022-08-18T23:21:48.949Z,80.65
2022-08-18T23:24:16.761Z,80.93
2022-08-18T23:26:43.655Z,81.06
2022-08-18T23:29:11.875Z,80.84
2022-08-18T23:31:41.111Z,81.28
2022-08-18T23:34:08.684Z,80.57
2022-08-18T23:36:38.763Z,81.58
2022-08-18T23:39:07.170Z,81.42
2022-08-18T23:41:35.663Z,81.48
2022-08-18T23:44:02.708Z,81.66
2022-08-18T23:46:30.925Z,81.73
2022-08-18T23:48:59.078Z,81.54
2022-08-18T23:51:37.000Z,82.06
2022-08-18T23:54:07.797Z,82.82
2022-08-18T23:56:35.891Z,84.18
2022-08-18T23:59:05.197Z,83.95
